createdAt,value
2017-08-31T00:01:46.054Z,27.07
2017-08-31T00:04:13.529Z,28.40
2017-08-31T00:06:41.115Z,23.13
2017-08-31T00:09:08.770Z,32.70
2017-08-31T00:11:36.462Z,24.80
2017-08-31T00:14:04.159Z,29.53
2017-08-31T00:16:31.690Z,28.37
2017-08-31T00:18:59.281Z,24.40
2017-08-31T00:21:26.776Z,19.87
2017-08-31T00:23:54.348Z,18.80
2017-08-31T00:26:21.881Z,20.07
2017-08-31T00:28:49.437Z,24.43
2017-08-31T00:31:16.997Z,19.50
2017-08-31T00:33:44.501Z,19.90
2017-08-31T00:36:12.132Z,25.33
2017-08-31T00:38:39.655Z,23.37
2017-08-31T00:41:07.236Z,20.27
2017-08-31T00:43:34.803Z,18.10
2017-08-31T00:46:02.371Z,20.97
2017-08-31T00:48:29.864Z,22.23
2017-08-31T00:50:57.450Z,27.23
2017-08-31T00:53:25.013Z,23.53
2017-08-31T00:55:52.589Z,20.27
2017-08-31T00:58:20.096Z,23.40
2017-08-31T01:00:47.725Z,21.30
2017-08-31T01:03:15.322Z,18.13
2017-08-31T01:05:42.824Z,19.10
2017-08-31T01:08:11.136Z,17.60
2017-08-31T01:10:39.879Z,18.13
2017-08-31T01:13:07.401Z,14.50
2017-08-31T01:15:35.140Z,21.90
2017-08-31T01:18:02.686Z,16.97
2017-08-31T01:20:30.210Z,14.83
2017-08-31T01:22:57.766Z,17.90
2017-08-31T01:25:25.287Z,17.70
2017-08-31T01:27:52.800Z,18.13
2017-08-31T01:30:20.394Z,18.83
2017-08-31T01:32:47.944Z,17.23
2017-08-31T01:35:15.606Z,11.73
2017-08-31T01:37:44.050Z,17.63
2017-08-31T01:40:11.574Z,14.83
2017-08-31T01:42:39.906Z,15.20
2017-08-31T01:45:07.447Z,18.53
2017-08-31T01:47:46.812Z,13.53
2017-08-31T01:50:15.092Z,15.73
2017-08-31T01:52:42.643Z,12.77
2017-08-31T01:55:10.238Z,21.77
2017-08-31T01:57:37.787Z,26.67
2017-08-31T02:00:05.287Z,23.07
2017-08-31T02:02:32.769Z,20.63
2017-08-31T02:05:00.350Z,17.97
2017-08-31T02:07:27.900Z,17.27
2017-08-31T02:09:55.552Z,14.40
2017-08-31T02:12:23.186Z,17.67
2017-08-31T02:14:50.862Z,16.47
2017-08-31T02:17:18.381Z,20.20
2017-08-31T02:19:45.890Z,17.93
2017-08-31T02:22:13.409Z,20.33
2017-08-31T02:24:41.690Z,22.00
2017-08-31T02:27:09.444Z,17.87
2017-08-31T02:29:37.043Z,19.63
2017-08-31T02:32:05.801Z,25.23
2017-08-31T02:34:34.120Z,20.50
2017-08-31T02:37:01.669Z,18.80
2017-08-31T02:39:29.236Z,16.40
2017-08-31T02:41:56.782Z,18.00
2017-08-31T02:44:24.268Z,18.13
2017-08-31T02:46:51.829Z,13.93
2017-08-31T02:49:20.282Z,23.13
2017-08-31T02:51:47.830Z,21.70
2017-08-31T02:54:15.342Z,21.10
2017-08-31T02:56:42.846Z,18.40
2017-08-31T02:59:10.385Z,16.00
2017-08-31T03:01:37.915Z,16.00
2017-08-31T03:04:05.431Z,23.77
2017-08-31T03:06:33.054Z,22.80
2017-08-31T03:09:00.650Z,15.87
2017-08-31T03:11:28.202Z,15.37
2017-08-31T03:13:55.767Z,18.73
2017-08-31T03:16:23.278Z,28.20
2017-08-31T03:18:50.800Z,18.37
2017-08-31T03:21:18.436Z,18.23
2017-08-31T03:23:45.940Z,19.60
2017-08-31T03:26:13.482Z,27.00
2017-08-31T03:28:41.111Z,23.20
2017-08-31T03:31:08.749Z,23.33
2017-08-31T03:33:36.280Z,19.17
2017-08-31T03:36:04.715Z,23.53
2017-08-31T03:38:32.347Z,19.23
2017-08-31T03:40:59.891Z,22.70
2017-08-31T03:43:27.476Z,17.93
2017-08-31T03:45:55.006Z,18.43
2017-08-31T03:48:22.543Z,27.10
2017-08-31T03:50:50.030Z,17.63
2017-08-31T03:53:19.617Z,20.07
2017-08-31T03:55:47.112Z,18.53
2017-08-31T03:58:14.632Z,26.50
2017-08-31T04:00:42.200Z,22.57
2017-08-31T04:03:11.248Z,20.53
2017-08-31T04:05:38.760Z,20.17
2017-08-31T04:08:06.308Z,21.90
2017-08-31T04:10:33.940Z,26.87
2017-08-31T04:13:01.496Z,22.90
2017-08-31T04:15:29.048Z,18.70
2017-08-31T04:17:56.579Z,22.07
2017-08-31T04:20:24.093Z,24.50
2017-08-31T04:22:51.636Z,24.27
2017-08-31T04:25:19.197Z,22.50
2017-08-31T04:27:46.687Z,20.43
2017-08-31T04:30:14.236Z,26.03
2017-08-31T04:32:41.753Z,23.13
2017-08-31T04:35:09.325Z,21.20
2017-08-31T04:37:36.925Z,25.93
2017-08-31T04:40:04.528Z,20.50
2017-08-31T04:42:32.061Z,18.60
2017-08-31T04:44:59.570Z,27.17
2017-08-31T04:47:27.135Z,26.13
2017-08-31T04:49:54.682Z,21.90
2017-08-31T04:52:22.178Z,20.17
2017-08-31T04:54:49.739Z,27.23
2017-08-31T04:57:17.253Z,30.77
2017-08-31T04:59:45.865Z,20.87
2017-08-31T05:02:13.446Z,25.47
2017-08-31T05:04:40.961Z,26.57
2017-08-31T05:07:08.780Z,22.30
2017-08-31T05:09:36.354Z,24.10
2017-08-31T05:12:04.678Z,22.33
2017-08-31T05:14:32.237Z,23.07
2017-08-31T05:16:59.788Z,25.80
2017-08-31T05:19:27.532Z,23.63
2017-08-31T05:21:56.095Z,21.53
2017-08-31T05:24:23.646Z,28.83
2017-08-31T05:26:51.178Z,22.53
2017-08-31T05:29:18.780Z,19.73
2017-08-31T05:31:46.314Z,36.20
2017-08-31T05:34:13.921Z,25.03
2017-08-31T05:36:41.448Z,20.23
2017-08-31T05:39:09.347Z,36.50
2017-08-31T05:41:36.839Z,26.40
2017-08-31T05:44:04.374Z,26.17
2017-08-31T05:46:32.884Z,19.70
2017-08-31T05:49:00.615Z,20.07
2017-08-31T05:51:28.183Z,25.00
2017-08-31T05:53:55.828Z,29.13
2017-08-31T05:56:23.340Z,21.47
2017-08-31T05:58:50.995Z,22.63
2017-08-31T06:01:18.517Z,21.13
2017-08-31T06:03:46.049Z,22.23
2017-08-31T06:06:13.594Z,23.40
2017-08-31T06:08:41.309Z,25.13
2017-08-31T06:11:09.194Z,26.53
2017-08-31T06:13:36.829Z,26.77
2017-08-31T06:16:04.338Z,26.90
2017-08-31T06:18:31.840Z,24.17
2017-08-31T06:20:59.409Z,27.30
2017-08-31T06:23:26.999Z,20.07
2017-08-31T06:25:55.296Z,24.53
2017-08-31T06:28:22.844Z,23.07
2017-08-31T06:30:51.135Z,16.73
2017-08-31T06:33:18.757Z,17.80
2017-08-31T06:35:46.347Z,18.80
2017-08-31T06:38:14.693Z,18.90
2017-08-31T06:40:42.317Z,17.50
2017-08-31T06:43:10.083Z,17.47
2017-08-31T06:45:37.590Z,13.90
2017-08-31T06:48:05.176Z,13.33
2017-08-31T06:50:32.686Z,12.50
2017-08-31T06:53:00.279Z,23.30
2017-08-31T06:55:27.773Z,12.60
2017-08-31T06:57:56.119Z,21.03
2017-08-31T07:00:23.661Z,15.53
2017-08-31T07:02:51.295Z,18.97
2017-08-31T07:05:18.914Z,16.20
2017-08-31T07:07:46.456Z,11.43
2017-08-31T07:10:13.993Z,17.40
2017-08-31T07:12:42.316Z,17.67
2017-08-31T07:15:10.215Z,15.77
2017-08-31T07:17:37.760Z,24.90
2017-08-31T07:20:05.272Z,11.60
2017-08-31T07:22:33.601Z,10.20
2017-08-31T07:25:01.212Z,10.47
2017-08-31T07:27:29.498Z,20.60
2017-08-31T07:29:56.990Z,12.40
2017-08-31T07:32:24.494Z,15.23
2017-08-31T07:34:53.048Z,12.23
2017-08-31T07:37:20.621Z,12.43
2017-08-31T07:39:48.139Z,12.50
2017-08-31T07:42:15.735Z,10.73
2017-08-31T07:44:43.262Z,17.27
2017-08-31T07:47:10.931Z,14.80
2017-08-31T07:49:38.404Z,13.93
2017-08-31T07:52:05.901Z,10.17
2017-08-31T07:54:34.149Z,11.90
2017-08-31T07:57:01.679Z,12.10
2017-08-31T07:59:29.242Z,10.97
2017-08-31T08:01:56.823Z,16.47
2017-08-31T08:04:24.335Z,9.03
2017-08-31T08:06:51.846Z,8.90
2017-08-31T08:09:20.242Z,10.80
2017-08-31T08:11:47.728Z,8.10
2017-08-31T08:14:15.206Z,16.13
2017-08-31T08:16:42.714Z,9.57
2017-08-31T08:19:10.302Z,11.23
2017-08-31T08:21:37.780Z,8.70
2017-08-31T08:24:05.372Z,12.80
2017-08-31T08:26:32.969Z,16.17
2017-08-31T08:29:00.548Z,13.43
2017-08-31T08:31:28.184Z,11.83
2017-08-31T08:33:55.743Z,9.87
2017-08-31T08:36:23.247Z,10.40
2017-08-31T08:38:50.727Z,15.43
2017-08-31T08:41:18.219Z,8.87
2017-08-31T08:43:45.799Z,10.30
2017-08-31T08:46:13.352Z,13.13
2017-08-31T08:48:40.915Z,9.90
2017-08-31T08:51:09.327Z,11.75
2017-08-31T08:53:37.782Z,10.93
2017-08-31T08:56:05.374Z,12.10
2017-08-31T08:58:33.036Z,10.60
2017-08-31T09:01:01.394Z,6.63
2017-08-31T09:03:28.929Z,9.57
2017-08-31T09:05:56.430Z,8.50
2017-08-31T09:08:24.696Z,7.93
2017-08-31T09:10:52.917Z,12.27
2017-08-31T09:13:20.456Z,9.30
2017-08-31T09:15:47.959Z,10.73
2017-08-31T09:18:15.463Z,12.73
2017-08-31T09:20:43.007Z,9.60
2017-08-31T09:23:10.517Z,14.13
2017-08-31T09:25:37.995Z,9.60
2017-08-31T09:28:05.550Z,14.23
2017-08-31T09:30:33.046Z,11.10
2017-08-31T09:33:00.748Z,10.00
2017-08-31T09:35:28.254Z,9.47
2017-08-31T09:37:56.062Z,11.77
2017-08-31T09:40:23.571Z,16.40
2017-08-31T09:42:51.133Z,8.83
2017-08-31T09:45:19.527Z,11.57
2017-08-31T09:47:46.999Z,12.40
2017-08-31T09:50:14.514Z,12.20
2017-08-31T09:52:41.990Z,7.93
2017-08-31T09:55:10.008Z,12.07
2017-08-31T09:57:37.568Z,13.30
2017-08-31T10:00:05.351Z,9.73
2017-08-31T10:02:33.647Z,8.67
2017-08-31T10:05:01.202Z,10.63
2017-08-31T10:07:28.766Z,8.57
2017-08-31T10:09:56.267Z,10.17
2017-08-31T10:12:23.899Z,13.00
2017-08-31T10:14:51.441Z,8.20
2017-08-31T10:17:19.018Z,7.80
2017-08-31T10:19:46.521Z,11.60
2017-08-31T10:22:14.005Z,13.37
2017-08-31T10:24:41.553Z,9.93
2017-08-31T10:27:09.213Z,13.90
2017-08-31T10:29:36.706Z,9.93
2017-08-31T10:32:04.238Z,12.50
2017-08-31T10:34:31.784Z,10.17
2017-08-31T10:36:59.650Z,11.53
2017-08-31T10:39:27.142Z,14.73
2017-08-31T10:41:54.662Z,9.30
2017-08-31T10:44:22.150Z,11.77
2017-08-31T10:46:49.656Z,11.13
2017-08-31T10:49:17.262Z,12.90
2017-08-31T10:51:44.730Z,7.80
2017-08-31T10:54:12.234Z,11.80
2017-08-31T10:56:39.721Z,9.73
2017-08-31T10:59:07.220Z,9.90
2017-08-31T11:01:34.726Z,11.53
2017-08-31T11:04:02.300Z,10.40
2017-08-31T11:06:29.829Z,8.80
2017-08-31T11:08:57.720Z,11.03
2017-08-31T11:11:25.277Z,11.10
2017-08-31T11:13:52.757Z,12.70
2017-08-31T11:16:20.382Z,6.60
2017-08-31T11:18:48.733Z,12.30
2017-08-31T11:21:16.529Z,7.50
2017-08-31T11:23:44.084Z,14.07
2017-08-31T11:26:11.580Z,8.10
2017-08-31T11:28:40.181Z,6.13
2017-08-31T11:31:07.796Z,9.30
2017-08-31T11:33:35.364Z,5.23
2017-08-31T11:36:03.747Z,31.00
2017-08-31T11:38:31.244Z,8.23
2017-08-31T11:40:59.028Z,9.87
2017-08-31T11:43:26.600Z,7.93
2017-08-31T11:45:54.094Z,11.63
2017-08-31T11:48:22.411Z,9.27
2017-08-31T11:50:49.967Z,13.67
2017-08-31T11:53:17.515Z,12.13
2017-08-31T11:55:45.002Z,15.17
2017-08-31T11:58:12.593Z,11.00
2017-08-31T12:00:40.440Z,11.07
2017-08-31T12:03:08.121Z,15.37
2017-08-31T12:05:35.788Z,18.17
2017-08-31T12:08:03.360Z,10.80
2017-08-31T12:10:30.861Z,10.47
2017-08-31T12:12:58.375Z,13.57
2017-08-31T12:15:25.874Z,6.93
2017-08-31T12:17:53.400Z,9.03
2017-08-31T12:20:20.960Z,7.40
2017-08-31T12:22:48.463Z,8.87
2017-08-31T12:25:15.944Z,8.57
2017-08-31T12:27:44.369Z,13.00
2017-08-31T12:30:12.069Z,11.17
2017-08-31T12:32:39.734Z,14.27
2017-08-31T12:35:08.339Z,10.50
2017-08-31T12:37:35.875Z,9.33
2017-08-31T12:40:04.388Z,13.40
2017-08-31T12:42:32.969Z,7.47
2017-08-31T12:45:00.666Z,9.10
2017-08-31T12:47:28.594Z,10.47
2017-08-31T12:49:56.180Z,6.30
2017-08-31T12:52:24.896Z,7.57
2017-08-31T12:54:52.868Z,4.53
2017-08-31T12:57:20.710Z,4.57
2017-08-31T12:59:48.396Z,5.23
2017-08-31T13:02:16.466Z,4.43
2017-08-31T13:04:44.426Z,7.07
2017-08-31T13:07:12.112Z,7.37
2017-08-31T13:09:39.779Z,4.70
2017-08-31T13:12:07.351Z,7.17
2017-08-31T13:14:35.701Z,5.33
2017-08-31T13:17:03.499Z,4.87
2017-08-31T13:19:31.121Z,7.03
2017-08-31T13:21:58.760Z,6.70
2017-08-31T13:24:26.319Z,6.40
2017-08-31T13:26:54.028Z,6.10
2017-08-31T13:29:22.340Z,6.00
2017-08-31T13:31:49.903Z,5.00
2017-08-31T13:34:17.866Z,6.10
2017-08-31T13:36:45.393Z,10.20
2017-08-31T13:39:16.300Z,8.97
2017-08-31T13:41:44.583Z,7.10
2017-08-31T13:44:13.092Z,7.73
2017-08-31T13:46:41.383Z,10.00
2017-08-31T13:49:09.152Z,8.57
2017-08-31T13:51:36.782Z,10.20
2017-08-31T13:54:04.284Z,8.07
2017-08-31T13:56:32.074Z,8.40
2017-08-31T13:58:59.580Z,7.37
2017-08-31T14:01:27.182Z,6.60
2017-08-31T14:03:54.887Z,10.57
2017-08-31T14:06:22.540Z,6.60
2017-08-31T14:08:50.124Z,9.27
2017-08-31T14:11:17.655Z,13.80
2017-08-31T14:13:45.155Z,20.63
2017-08-31T14:16:14.955Z,12.50
2017-08-31T14:18:44.053Z,6.70
2017-08-31T14:21:11.543Z,7.20
2017-08-31T14:23:39.236Z,7.80
2017-08-31T14:26:07.503Z,7.40
2017-08-31T14:28:35.028Z,10.30
2017-08-31T14:31:02.922Z,9.27
2017-08-31T14:33:30.495Z,11.83
2017-08-31T14:35:58.073Z,10.03
2017-08-31T14:38:25.576Z,8.90
2017-08-31T14:40:53.237Z,8.77
2017-08-31T14:43:20.744Z,7.97
2017-08-31T14:45:48.380Z,8.30
2017-08-31T14:48:15.919Z,9.37
2017-08-31T14:50:43.426Z,6.43
2017-08-31T14:53:10.951Z,8.50
2017-08-31T14:55:38.475Z,7.60
2017-08-31T14:58:06.228Z,6.20
2017-08-31T15:00:33.855Z,7.30
2017-08-31T15:03:01.716Z,6.90
2017-08-31T15:05:29.436Z,4.93
2017-08-31T15:07:56.986Z,5.40
2017-08-31T15:10:24.508Z,8.40
2017-08-31T15:12:52.043Z,5.07
2017-08-31T15:15:19.686Z,3.80
2017-08-31T15:17:47.227Z,4.97
2017-08-31T15:20:14.719Z,4.50
2017-08-31T15:22:42.246Z,7.50
2017-08-31T15:25:10.132Z,6.30
2017-08-31T15:27:37.843Z,6.90
2017-08-31T15:30:05.349Z,5.03
2017-08-31T15:32:32.954Z,5.17
2017-08-31T15:35:00.620Z,5.60
2017-08-31T15:37:28.150Z,5.60
2017-08-31T15:39:55.952Z,4.60
2017-08-31T15:42:23.595Z,5.37
2017-08-31T15:44:51.159Z,5.70
2017-08-31T15:47:18.701Z,6.50
2017-08-31T15:49:46.950Z,5.63
2017-08-31T15:52:14.511Z,6.20
2017-08-31T15:54:42.142Z,13.07
2017-08-31T15:57:09.998Z,5.43
2017-08-31T15:59:37.506Z,7.10
2017-08-31T16:02:05.036Z,6.50
2017-08-31T16:04:32.631Z,6.13
2017-08-31T16:07:00.986Z,9.27
2017-08-31T16:09:29.312Z,8.53
2017-08-31T16:11:56.825Z,11.83
2017-08-31T16:14:24.338Z,7.93
2017-08-31T16:16:51.979Z,6.07
2017-08-31T16:19:20.305Z,11.33
2017-08-31T16:21:47.855Z,8.63
2017-08-31T16:24:15.376Z,6.93
2017-08-31T16:26:42.860Z,10.17
2017-08-31T16:29:11.417Z,16.93
2017-08-31T16:31:39.118Z,7.53
2017-08-31T16:34:06.624Z,11.00
2017-08-31T16:36:34.416Z,11.13
2017-08-31T16:39:03.197Z,13.37
2017-08-31T16:41:30.726Z,9.67
2017-08-31T16:43:59.815Z,12.60
2017-08-31T16:46:27.910Z,13.47
2017-08-31T16:48:59.275Z,12.57
2017-08-31T16:51:29.039Z,13.13
2017-08-31T16:53:57.701Z,11.67
2017-08-31T16:56:29.763Z,9.63
2017-08-31T16:58:58.634Z,9.93
2017-08-31T17:01:26.893Z,8.93
2017-08-31T17:03:55.045Z,11.37
2017-08-31T17:06:22.833Z,7.53
2017-08-31T17:08:51.303Z,8.50
2017-08-31T17:11:19.567Z,8.10
2017-08-31T17:13:47.553Z,6.63
2017-08-31T17:16:16.044Z,8.70
2017-08-31T17:18:44.396Z,8.60
2017-08-31T17:21:13.554Z,8.87
2017-08-31T17:23:41.184Z,9.33
2017-08-31T17:26:09.095Z,11.23
2017-08-31T17:28:36.634Z,10.00
2017-08-31T17:31:04.441Z,10.77
2017-08-31T17:33:32.215Z,9.70
2017-08-31T17:35:59.814Z,12.93
2017-08-31T17:38:27.513Z,16.37
2017-08-31T17:40:58.551Z,13.63
2017-08-31T17:43:26.252Z,12.93
2017-08-31T17:45:54.060Z,13.90
2017-08-31T17:48:21.728Z,12.37
2017-08-31T17:50:50.097Z,12.90
2017-08-31T17:53:17.636Z,13.83
2017-08-31T17:55:45.858Z,9.83
2017-08-31T17:58:14.334Z,11.20
2017-08-31T18:00:41.887Z,11.40
2017-08-31T18:03:14.210Z,11.00
2017-08-31T18:05:41.779Z,14.77
2017-08-31T18:08:09.380Z,11.70
2017-08-31T18:10:39.011Z,14.30
2017-08-31T18:13:06.691Z,14.20
2017-08-31T18:15:34.303Z,14.50
2017-08-31T18:18:02.795Z,27.87
2017-08-31T18:20:30.446Z,15.43
2017-08-31T18:22:58.845Z,19.47
2017-08-31T18:25:28.338Z,18.93
2017-08-31T18:27:55.835Z,16.57
2017-08-31T18:30:23.314Z,16.10
2017-08-31T18:32:50.896Z,14.90
2017-08-31T18:35:19.276Z,14.20
2017-08-31T18:37:46.796Z,12.97
2017-08-31T18:40:17.877Z,11.70
2017-08-31T18:42:45.438Z,12.33
2017-08-31T18:45:12.974Z,13.67
2017-08-31T18:47:40.489Z,12.90
2017-08-31T18:50:08.215Z,16.70
2017-08-31T18:52:35.735Z,11.30
2017-08-31T18:55:03.309Z,11.00
2017-08-31T18:57:30.831Z,12.70
2017-08-31T18:59:58.413Z,15.33
2017-08-31T19:02:25.952Z,11.30
2017-08-31T19:04:53.494Z,15.00
2017-08-31T19:07:21.030Z,16.97
2017-08-31T19:09:48.529Z,13.83
2017-08-31T19:12:16.012Z,15.90
2017-08-31T19:14:43.833Z,18.73
2017-08-31T19:17:11.349Z,17.30
2017-08-31T19:19:39.747Z,16.10
2017-08-31T19:22:07.302Z,25.37
2017-08-31T19:24:35.603Z,18.40
2017-08-31T19:27:03.463Z,16.20
2017-08-31T19:29:30.978Z,20.90
2017-08-31T19:31:58.605Z,16.27
2017-08-31T19:34:26.126Z,15.90
2017-08-31T19:36:53.618Z,15.63
2017-08-31T19:39:21.113Z,14.73
2017-08-31T19:41:49.647Z,16.43
2017-08-31T19:44:17.183Z,17.27
2017-08-31T19:46:44.812Z,22.97
2017-08-31T19:49:12.353Z,23.17
2017-08-31T19:51:39.942Z,18.50
2017-08-31T19:54:07.523Z,15.83
2017-08-31T19:56:35.019Z,18.30
2017-08-31T19:59:02.682Z,18.60
2017-08-31T20:01:30.267Z,17.63
2017-08-31T20:03:57.772Z,20.63
2017-08-31T20:06:25.398Z,22.97
2017-08-31T20:08:52.987Z,23.17
2017-08-31T20:11:20.479Z,23.50
2017-08-31T20:13:47.999Z,24.20
2017-08-31T20:16:15.575Z,21.07
2017-08-31T20:18:43.052Z,25.80
2017-08-31T20:21:10.656Z,26.33
2017-08-31T20:23:38.203Z,25.50
2017-08-31T20:26:05.863Z,22.83
2017-08-31T20:28:33.399Z,24.40
2017-08-31T20:31:00.945Z,23.70
2017-08-31T20:33:28.432Z,25.17
2017-08-31T20:35:55.952Z,25.40
2017-08-31T20:38:23.489Z,27.20
2017-08-31T20:40:51.043Z,27.43
2017-08-31T20:43:18.629Z,26.90
2017-08-31T20:45:46.916Z,28.63
2017-08-31T20:48:14.497Z,28.73
2017-08-31T20:50:42.018Z,27.33
2017-08-31T20:53:09.861Z,31.67
2017-08-31T20:55:37.400Z,29.10
2017-08-31T20:58:04.896Z,37.53
2017-08-31T21:00:32.405Z,43.37
2017-08-31T21:03:00.272Z,31.60
2017-08-31T21:05:28.560Z,34.17
2017-08-31T21:07:56.830Z,30.87
2017-08-31T21:10:24.474Z,35.73
2017-08-31T21:12:52.036Z,37.77
2017-08-31T21:15:19.751Z,30.03
2017-08-31T21:17:47.272Z,30.10
2017-08-31T21:20:14.789Z,25.97
2017-08-31T21:22:42.351Z,29.17
2017-08-31T21:25:10.114Z,29.27
2017-08-31T21:27:37.713Z,31.80
2017-08-31T21:30:05.226Z,30.63
2017-08-31T21:32:32.912Z,29.27
2017-08-31T21:35:00.439Z,29.37
2017-08-31T21:37:28.007Z,29.53
2017-08-31T21:39:55.659Z,32.50
2017-08-31T21:42:23.178Z,30.97
2017-08-31T21:44:50.679Z,30.67
2017-08-31T21:47:18.206Z,32.17
2017-08-31T21:49:46.649Z,30.60
2017-08-31T21:52:14.345Z,36.87
2017-08-31T21:54:42.647Z,33.20
2017-08-31T21:57:10.230Z,36.73
2017-08-31T21:59:37.891Z,35.03
2017-08-31T22:02:05.534Z,36.60
2017-08-31T22:04:33.021Z,36.17
2017-08-31T22:07:00.574Z,38.30
2017-08-31T22:09:28.114Z,37.33
2017-08-31T22:11:55.648Z,38.57
2017-08-31T22:14:23.215Z,39.20
2017-08-31T22:16:50.753Z,38.60
2017-08-31T22:19:18.267Z,36.60
2017-08-31T22:21:45.859Z,31.57
2017-08-31T22:24:13.360Z,31.20
2017-08-31T22:26:40.912Z,36.00
2017-08-31T22:29:08.671Z,37.27
2017-08-31T22:31:36.234Z,36.10
2017-08-31T22:34:03.941Z,36.23
2017-08-31T22:36:31.492Z,36.93
2017-08-31T22:38:59.150Z,39.17
2017-08-31T22:41:26.661Z,33.63
2017-08-31T22:43:55.002Z,23.43
2017-08-31T22:46:22.540Z,24.80
2017-08-31T22:48:50.227Z,21.37
2017-08-31T22:51:17.737Z,22.00
2017-08-31T22:53:45.426Z,33.30
2017-08-31T22:56:12.986Z,20.57
2017-08-31T22:58:43.475Z,22.93
2017-08-31T23:01:11.001Z,25.27
2017-08-31T23:03:38.560Z,21.17
2017-08-31T23:06:06.040Z,19.47
2017-08-31T23:08:33.554Z,23.97
2017-08-31T23:11:01.170Z,22.17
2017-08-31T23:13:28.734Z,27.17
2017-08-31T23:15:56.351Z,48.53
2017-08-31T23:18:23.893Z,41.77
2017-08-31T23:20:51.423Z,27.73
2017-08-31T23:23:19.060Z,36.07
2017-08-31T23:25:46.610Z,30.93
2017-08-31T23:28:14.123Z,34.13
2017-08-31T23:30:41.645Z,27.97
2017-08-31T23:33:09.950Z,41.33
2017-08-31T23:35:37.511Z,28.57
2017-08-31T23:38:05.110Z,31.17
2017-08-31T23:40:32.627Z,26.27
2017-08-31T23:43:00.133Z,28.03
2017-08-31T23:45:27.634Z,25.43
2017-08-31T23:47:55.145Z,25.73
2017-08-31T23:50:23.640Z,25.23
2017-08-31T23:52:51.142Z,25.77
2017-08-31T23:55:18.735Z,30.10
2017-08-31T23:57:46.277Z,35.70
